Terminal Aerodrome Forecast
Issued by NWS

Home | Current Version | Previous Version | Text Only | Print | Product List | Glossary On
Versions: 1 2 3 4 5 6 7 8 9 10 11 12 13 14 15 16
000
FTUS46 KOTX 291458 AAA
TAFPUW
TAF AMD
KPUW 291458Z 2915/3012 13004KT P6SM VCSH SCT060 BKN080
     FM291700 25008KT P6SM SCT060 SCT150 BKN200
     FM292000 26010G18KT P6SM SCT050 BKN060
     FM292300 26013G21KT P6SM SCT060
     FM300300 25009KT P6SM SCT060 BKN080
     FM300900 24004KT P6SM SKC=

USA.gov is the U.S. government's official web portal to all federal, state and local government web resources and services.